Time;durP1;ratioP1;P1;durP2;ratioP2;P2;SDS_P1;SDS_P2;PMS_P1;PMS_P2;Temp;Humidity;BMP_temperature;BMP_pressure;BME280_temperature;BME280_humidity;BME280_pressure;Samples;Min_cycle;Max_cycle;Signal;HPM_P1;HPM_P2
2023/04/17 00:00:49;;;;;;;6.60;5.90;;;18.20;63.20;;;;;;5049167;28;20514;-48
2023/04/17 00:03:20;;;;;;;7.40;5.90;;;18.20;63.20;;;;;;5071679;28;20200;-48
2023/04/17 00:05:52;;;;;;;7.17;6.03;;;18.20;63.00;;;;;;5068075;28;20689;-48
2023/04/17 00:08:27;;;;;;;7.27;6.53;;;18.20;63.00;;;;;;5068978;28;20246;-48
2023/04/17 00:11:01;;;;;;;7.53;6.50;;;18.20;63.20;;;;;;5052839;28;20181;-47
2023/04/17 00:13:35;;;;;;;6.87;6.17;;;18.10;63.00;;;;;;5078304;28;20209;-47
2023/04/17 00:16:04;;;;;;;6.70;5.80;;;18.20;63.20;;;;;;5070792;28;20209;-48
2023/04/17 00:18:36;;;;;;;7.80;6.40;;;18.20;63.20;;;;;;5067644;28;20251;-48
2023/04/17 00:21:13;;;;;;;6.63;6.03;;;18.20;63.10;;;;;;5073804;28;20665;-48
2023/04/17 00:23:45;;;;;;;7.23;6.40;;;18.20;63.20;;;;;;5081832;28;20197;-48
2023/04/17 00:26:16;;;;;;;7.53;6.57;;;18.20;63.80;;;;;;5073720;28;20237;-48
2023/04/17 00:28:53;;;;;;;7.77;5.97;;;18.10;63.20;;;;;;5077682;28;20206;-47
2023/04/17 00:31:25;;;;;;;8.40;6.20;;;18.10;63.20;;;;;;5072512;28;20631;-48
2023/04/17 00:33:55;;;;;;;7.17;5.57;;;18.10;63.30;;;;;;5071601;28;20200;-47
2023/04/17 00:36:29;;;;;;;6.60;6.00;;;18.10;63.20;;;;;;5075304;28;20201;-47
2023/04/17 00:38:58;;;;;;;7.57;6.40;;;18.10;63.10;;;;;;5050946;28;20201;-47
2023/04/17 00:41:29;;;;;;;6.93;6.23;;;18.10;63.20;;;;;;5069528;28;20229;-47
2023/04/17 00:44:00;;;;;;;7.30;6.60;;;18.10;63.10;;;;;;5072995;28;20561;-48
2023/04/17 00:46:32;;;;;;;7.10;6.40;;;18.10;63.10;;;;;;5054682;28;20201;-47
2023/04/17 00:49:04;;;;;;;6.63;5.93;;;18.10;63.00;;;;;;5067087;28;20209;-47
2023/04/17 00:51:36;;;;;;;7.53;6.63;;;18.10;63.10;;;;;;5075041;28;20256;-47
2023/04/17 00:54:11;;;;;;;7.30;6.60;;;18.10;63.10;;;;;;5068971;28;20186;-48
2023/04/17 00:56:43;;;;;;;7.60;6.50;;;18.10;63.10;;;;;;5081899;28;20189;-48
2023/04/17 00:59:17;;;;;;;8.13;6.27;;;18.10;63.20;;;;;;5080736;28;20197;-47
2023/04/17 01:01:48;;;;;;;6.20;5.60;;;18.10;63.10;;;;;;5052054;28;20574;-48
2023/04/17 01:04:18;;;;;;;8.47;6.87;;;18.10;63.10;;;;;;5071276;28;20230;-48
2023/04/17 01:06:49;;;;;;;7.23;6.33;;;18.10;63.20;;;;;;5068771;28;20247;-47
2023/04/17 01:09:19;;;;;;;7.90;6.67;;;18.00;63.00;;;;;;5073835;28;20201;-48
2023/04/17 01:11:49;;;;;;;8.53;6.30;;;18.00;63.00;;;;;;5076643;28;20527;-48
2023/04/17 01:14:20;;;;;;;9.30;7.40;;;18.00;63.00;;;;;;5069367;28;20213;-48
2023/04/17 01:16:49;;;;;;;7.37;6.60;;;18.00;63.10;;;;;;5068860;28;20190;-47
2023/04/17 01:19:32;;;;;;;7.33;6.50;;;18.00;63.00;;;;;;5067454;28;20229;-48
2023/04/17 01:22:01;;;;;;;7.70;6.90;;;18.00;63.00;;;;;;5076480;28;20202;-48
2023/04/17 01:24:32;;;;;;;8.30;7.00;;;18.00;63.10;;;;;;5071403;28;20194;-47
2023/04/17 01:26:59;;;;;;;8.43;6.83;;;18.00;63.10;;;;;;5032560;28;20218;-47
2023/04/17 01:29:33;;;;;;;7.30;6.53;;;18.00;63.00;;;;;;5050400;28;20206;-48
2023/04/17 01:32:00;;;;;;;7.07;6.37;;;18.00;63.10;;;;;;5049670;28;20248;-48
2023/04/17 01:34:31;;;;;;;7.40;6.13;;;17.90;63.10;;;;;;5037324;28;20194;-48
2023/04/17 01:37:00;;;;;;;7.23;6.37;;;18.00;63.10;;;;;;5045499;28;20594;-48
2023/04/17 01:39:33;;;;;;;7.20;6.50;;;17.90;63.00;;;;;;5052254;28;20190;-48
2023/04/17 01:42:05;;;;;;;7.17;6.30;;;17.90;63.00;;;;;;5050644;28;20551;-48
2023/04/17 01:44:36;;;;;;;6.43;5.83;;;17.90;63.00;;;;;;5049661;28;20206;-48
2023/04/17 01:47:06;;;;;;;7.37;6.67;;;17.90;63.00;;;;;;5042493;28;20682;-48
2023/04/17 01:49:37;;;;;;;7.10;6.40;;;17.90;63.00;;;;;;5045895;28;20296;-48
2023/04/17 01:52:05;;;;;;;7.23;6.53;;;17.90;63.00;;;;;;5051560;28;20616;-48
2023/04/17 01:54:37;;;;;;;7.90;6.47;;;17.90;63.00;;;;;;5026049;28;20213;-48
2023/04/17 01:57:08;;;;;;;7.27;6.40;;;17.90;62.90;;;;;;5016515;28;20202;-48
2023/04/17 01:59:39;;;;;;;6.53;5.93;;;17.90;63.00;;;;;;5049033;28;20187;-48
2023/04/17 02:02:10;;;;;;;7.57;6.77;;;17.90;63.00;;;;;;5049521;28;20194;-48
2023/04/17 02:04:42;;;;;;;7.13;6.47;;;17.90;63.00;;;;;;5044287;28;20229;-48
2023/04/17 02:07:10;;;;;;;6.73;6.13;;;17.90;62.90;;;;;;5041819;28;20276;-48
2023/04/17 02:09:38;;;;;;;7.73;6.47;;;17.90;63.00;;;;;;5049405;28;20672;-48
2023/04/17 02:12:09;;;;;;;7.30;6.50;;;17.90;62.90;;;;;;5043381;28;20217;-48
2023/04/17 02:14:39;;;;;;;7.27;6.40;;;17.80;62.80;;;;;;5019753;28;20601;-48
2023/04/17 02:17:22;;;;;;;7.47;6.73;;;17.90;62.90;;;;;;5043700;28;20256;-47
2023/04/17 02:19:53;;;;;;;7.07;6.33;;;17.80;62.90;;;;;;5043452;28;20228;-48
2023/04/17 02:22:25;;;;;;;7.67;5.87;;;17.80;62.90;;;;;;5059540;28;20240;-48
2023/04/17 02:24:55;;;;;;;8.30;6.47;;;17.80;62.90;;;;;;5042776;28;20187;-47
2023/04/17 02:27:27;;;;;;;8.53;7.67;;;17.80;62.90;;;;;;5068161;28;20201;-48
2023/04/17 02:30:10;;;;;;;7.80;6.60;;;17.80;62.80;;;;;;5050639;28;20249;-49
2023/04/17 02:32:41;;;;;;;7.53;6.43;;;17.80;62.80;;;;;;5060394;28;20283;-47
2023/04/17 02:35:12;;;;;;;8.20;7.40;;;17.90;62.90;;;;;;5062303;28;20560;-48
2023/04/17 02:37:41;;;;;;;6.87;5.97;;;17.80;62.90;;;;;;5048089;28;20201;-48
2023/04/17 02:40:25;;;;;;;7.90;6.80;;;17.80;62.80;;;;;;5078627;28;20251;-48
2023/04/17 02:42:54;;;;;;;7.23;6.53;;;17.80;62.80;;;;;;5071671;28;20205;-48
2023/04/17 02:45:26;;;;;;;6.73;6.03;;;17.80;62.90;;;;;;5067617;28;20561;-48
2023/04/17 02:47:55;;;;;;;8.23;6.87;;;17.80;62.90;;;;;;5065550;28;20280;-48
2023/04/17 02:50:26;;;;;;;7.13;6.43;;;17.80;62.90;;;;;;5043434;28;20248;-47
2023/04/17 02:52:55;;;;;;;6.83;6.20;;;17.80;63.50;;;;;;5068009;28;20194;-47
2023/04/17 02:55:25;;;;;;;8.80;6.63;;;17.80;62.80;;;;;;5069560;28;20220;-48
2023/04/17 02:57:57;;;;;;;7.40;6.70;;;17.80;62.90;;;;;;5044230;28;20660;-48
2023/04/17 03:00:27;;;;;;;6.57;5.97;;;17.80;62.80;;;;;;5068570;28;20260;-48
2023/04/17 03:03:01;;;;;;;7.00;6.30;;;17.80;62.90;;;;;;5071416;28;20560;-48
2023/04/17 03:05:47;;;;;;;6.73;6.03;;;17.80;63.50;;;;;;5068019;28;20287;-48
2023/04/17 03:08:18;;;;;;;7.50;6.47;;;17.80;62.80;;;;;;5061906;28;20615;-48
2023/04/17 03:10:45;;;;;;;6.60;5.97;;;17.80;62.80;;;;;;5054469;28;20649;-47
2023/04/17 03:13:16;;;;;;;7.20;6.10;;;17.80;62.90;;;;;;5067491;28;20221;-48
2023/04/17 03:15:47;;;;;;;7.30;6.43;;;17.80;62.80;;;;;;5064723;28;20523;-48
2023/04/17 03:18:18;;;;;;;7.50;6.70;;;17.80;62.70;;;;;;5061452;28;20202;-48
2023/04/17 03:20:50;;;;;;;7.40;6.67;;;17.80;62.70;;;;;;5058783;28;20278;-47
2023/04/17 03:23:22;;;;;;;8.50;6.80;;;17.80;62.70;;;;;;5073994;28;20201;-47
2023/04/17 03:25:52;;;;;;;6.90;6.20;;;17.80;62.70;;;;;;5065769;28;20686;-48
2023/04/17 03:28:22;;;;;;;8.00;7.20;;;17.80;62.60;;;;;;5061889;28;20247;-48
2023/04/17 03:30:54;;;;;;;7.57;6.77;;;17.80;62.60;;;;;;5064166;28;20619;-47
2023/04/17 03:33:29;;;;;;;7.17;6.50;;;17.80;62.50;;;;;;5068810;28;20198;-48
2023/04/17 03:36:00;;;;;;;7.43;6.70;;;17.80;62.60;;;;;;5071648;28;20817;-47
2023/04/17 03:38:34;;;;;;;7.47;6.70;;;17.70;62.50;;;;;;5066027;28;20255;-48
2023/04/17 03:41:06;;;;;;;7.00;6.30;;;17.70;62.60;;;;;;5066318;28;20212;-48
2023/04/17 03:43:37;;;;;;;8.67;6.60;;;17.70;62.60;;;;;;5069253;28;20193;-48
2023/04/17 03:46:08;;;;;;;7.77;6.50;;;17.70;62.60;;;;;;5081328;28;20212;-48
2023/04/17 03:48:38;;;;;;;7.73;6.63;;;17.80;62.70;;;;;;5069091;28;20194;-48
2023/04/17 03:51:08;;;;;;;7.50;6.70;;;17.70;62.50;;;;;;5065503;28;20797;-48
2023/04/17 03:53:37;;;;;;;8.60;6.83;;;17.70;62.60;;;;;;5068955;28;20618;-48
2023/04/17 03:56:10;;;;;;;8.33;7.20;;;17.70;62.60;;;;;;5075834;28;20205;-48
2023/04/17 03:58:42;;;;;;;8.27;7.47;;;17.70;62.60;;;;;;5071143;28;20616;-48
2023/04/17 04:01:13;;;;;;;7.80;6.97;;;17.70;62.60;;;;;;5063415;28;20201;-48
2023/04/17 04:03:42;;;;;;;8.50;7.53;;;17.70;62.70;;;;;;5084956;28;20276;-47
2023/04/17 04:06:19;;;;;;;8.57;6.50;;;17.70;62.60;;;;;;5069543;28;20234;-47
2023/04/17 04:08:53;;;;;;;8.53;7.03;;;17.70;62.60;;;;;;5065540;28;20263;-47
2023/04/17 04:11:24;;;;;;;8.50;7.37;;;17.70;62.60;;;;;;5069463;28;20193;-48
2023/04/17 04:13:56;;;;;;;7.93;7.13;;;17.70;62.70;;;;;;5072388;28;20218;-48
2023/04/17 04:16:26;;;;;;;7.57;6.53;;;17.70;62.60;;;;;;5066351;28;20190;-47
2023/04/17 04:18:57;;;;;;;9.10;7.87;;;17.70;62.70;;;;;;5069458;28;20419;-47
2023/04/17 04:21:29;;;;;;;7.10;6.37;;;17.70;62.70;;;;;;5072305;28;20619;-48
2023/04/17 04:24:01;;;;;;;7.53;6.73;;;17.60;62.60;;;;;;5075578;28;20195;-48
2023/04/17 04:26:34;;;;;;;9.93;7.40;;;17.60;62.70;;;;;;5074600;28;20801;-47
2023/04/17 04:29:05;;;;;;;7.60;6.77;;;17.60;62.60;;;;;;5055051;28;20585;-46
2023/04/17 04:31:40;;;;;;;7.30;6.60;;;17.60;62.70;;;;;;5061707;28;20598;-46
2023/04/17 04:34:10;;;;;;;8.63;7.10;;;17.60;62.60;;;;;;5069208;28;20209;-46
2023/04/17 04:36:49;;;;;;;8.33;7.10;;;17.70;62.70;;;;;;5080981;28;20217;-47
2023/04/17 04:39:20;;;;;;;7.33;6.37;;;17.60;62.70;;;;;;5075249;28;20225;-47
2023/04/17 04:41:51;;;;;;;9.23;7.33;;;17.60;63.30;;;;;;5090390;28;20355;-47
2023/04/17 04:44:20;;;;;;;7.80;6.97;;;17.70;62.90;;;;;;5045845;28;20217;-46
2023/04/17 04:46:51;;;;;;;8.90;8.00;;;17.70;62.60;;;;;;5073485;28;20217;-47
2023/04/17 04:49:23;;;;;;;8.70;7.23;;;17.60;62.60;;;;;;5070114;28;20247;-47
2023/04/17 04:51:52;;;;;;;9.60;8.07;;;17.60;62.50;;;;;;5075398;28;20545;-48
2023/04/17 04:54:21;;;;;;;10.03;8.17;;;17.60;62.30;;;;;;5060891;28;20228;-48
2023/04/17 04:56:50;;;;;;;9.63;8.07;;;17.60;62.30;;;;;;5064122;28;20220;-47
2023/04/17 04:59:22;;;;;;;9.23;8.27;;;17.60;62.20;;;;;;5077939;28;20194;-47
2023/04/17 05:01:51;;;;;;;8.87;7.50;;;17.60;62.20;;;;;;5074905;28;20206;-48
2023/04/17 05:04:22;;;;;;;10.10;8.07;;;17.60;62.10;;;;;;5073786;28;20609;-48
2023/04/17 05:06:59;;;;;;;8.13;7.33;;;17.60;62.10;;;;;;5077664;28;20250;-48
2023/04/17 05:09:34;;;;;;;8.40;7.50;;;17.60;62.10;;;;;;5084034;28;20201;-48
2023/04/17 05:12:05;;;;;;;9.50;8.40;;;17.60;62.20;;;;;;5080569;28;20203;-48
2023/04/17 05:14:38;;;;;;;9.03;7.60;;;17.60;62.20;;;;;;5070627;28;20267;-47
2023/04/17 05:17:10;;;;;;;9.77;8.10;;;17.60;62.10;;;;;;5070301;28;20222;-47
2023/04/17 05:19:42;;;;;;;9.70;8.70;;;17.60;62.00;;;;;;5077986;28;20205;-48
2023/04/17 05:22:11;;;;;;;12.27;8.87;;;17.60;62.00;;;;;;5077936;28;20614;-47
2023/04/17 05:24:40;;;;;;;9.63;7.73;;;17.60;62.00;;;;;;5074020;28;20205;-47
2023/04/17 05:27:10;;;;;;;9.87;8.43;;;17.60;62.00;;;;;;5072830;28;20233;-48
2023/04/17 05:29:40;;;;;;;10.17;8.33;;;17.60;62.60;;;;;;5076822;28;20236;-47
2023/04/17 05:32:13;;;;;;;9.73;8.03;;;17.60;62.00;;;;;;5077611;28;20201;-47
2023/04/17 05:34:42;;;;;;;9.43;7.97;;;17.60;62.00;;;;;;5076332;28;20216;-47
2023/04/17 05:37:13;;;;;;;8.53;7.63;;;17.60;62.00;;;;;;5077375;28;20217;-47
2023/04/17 05:39:43;;;;;;;9.67;8.10;;;17.60;62.10;;;;;;5065993;28;20194;-47
2023/04/17 05:42:10;;;;;;;10.60;8.80;;;17.60;62.00;;;;;;5073939;28;20194;-48
2023/04/17 05:44:40;;;;;;;9.80;8.80;;;17.60;62.00;;;;;;5057584;28;20217;-47
2023/04/17 05:47:10;;;;;;;8.83;7.93;;;17.60;62.00;;;;;;5063501;28;20209;-47
2023/04/17 05:49:41;;;;;;;9.63;8.37;;;17.60;62.00;;;;;;5071092;28;20355;-47
2023/04/17 05:52:11;;;;;;;9.40;8.33;;;17.60;62.00;;;;;;5069265;28;20186;-47
2023/04/17 05:54:39;;;;;;;10.83;8.67;;;17.60;62.30;;;;;;5052247;28;20519;-47
2023/04/17 05:57:11;;;;;;;10.80;9.20;;;17.60;62.80;;;;;;5069407;28;20643;-47
2023/04/17 05:59:39;;;;;;;13.57;9.47;;;17.60;62.90;;;;;;5070878;28;20650;-47
2023/04/17 06:02:10;;;;;;;11.33;9.23;;;17.60;62.70;;;;;;5070310;28;20619;-47
2023/04/17 06:04:42;;;;;;;15.07;8.37;;;17.60;62.60;;;;;;5071271;28;20549;-47
2023/04/17 06:07:12;;;;;;;10.43;9.30;;;17.60;62.50;;;;;;5049559;28;20206;-47
2023/04/17 06:09:46;;;;;;;9.40;8.40;;;17.60;62.50;;;;;;5075673;28;20208;-47
2023/04/17 06:12:16;;;;;;;10.60;8.30;;;17.60;62.40;;;;;;5081347;28;20227;-48
2023/04/17 06:14:46;;;;;;;12.07;8.27;;;17.60;62.30;;;;;;5074857;28;20514;-47
2023/04/17 06:17:17;;;;;;;11.50;8.67;;;17.60;62.40;;;;;;5070673;28;20205;-47
2023/04/17 06:19:44;;;;;;;9.97;8.07;;;17.60;62.30;;;;;;5071186;28;20267;-47
2023/04/17 06:22:13;;;;;;;13.30;8.63;;;17.60;62.30;;;;;;5071171;28;20681;-47
2023/04/17 06:24:41;;;;;;;11.10;8.60;;;17.60;62.40;;;;;;5072633;28;20212;-47
2023/04/17 06:27:09;;;;;;;16.67;9.33;;;17.70;62.60;;;;;;5072514;28;20945;-47
2023/04/17 06:29:39;;;;;;;12.47;9.10;;;17.60;64.60;;;;;;5065242;28;20214;-47
2023/04/17 06:32:08;;;;;;;13.87;9.27;;;17.60;65.20;;;;;;5071439;28;20667;-47
2023/04/17 06:34:40;;;;;;;15.80;9.60;;;17.60;64.50;;;;;;5073656;28;20208;-48
2023/04/17 06:37:26;;;;;;;16.70;8.97;;;17.60;64.20;;;;;;5067373;28;20646;-47
2023/04/17 06:39:56;;;;;;;15.00;10.33;;;17.60;64.10;;;;;;5070405;28;20528;-47
2023/04/17 06:42:27;;;;;;;16.03;9.57;;;17.70;63.80;;;;;;5071180;28;20276;-47
2023/04/17 06:45:02;;;;;;;17.37;10.30;;;17.60;63.50;;;;;;5067726;28;20189;-47
2023/04/17 06:47:33;;;;;;;14.50;9.93;;;17.70;63.40;;;;;;5072025;28;20492;-47
2023/04/17 06:50:05;;;;;;;12.13;9.03;;;17.60;63.20;;;;;;5069354;28;20233;-47
2023/04/17 06:52:33;;;;;;;15.97;9.70;;;17.60;63.00;;;;;;5073019;28;20194;-47
2023/04/17 06:55:10;;;;;;;14.37;9.60;;;17.60;63.10;;;;;;5067185;28;20787;-47
2023/04/17 06:57:45;;;;;;;12.97;9.07;;;17.70;62.80;;;;;;5065375;28;20872;-47
2023/04/17 07:00:16;;;;;;;13.93;9.33;;;17.60;62.80;;;;;;5060782;28;20713;-46
2023/04/17 07:02:47;;;;;;;13.40;9.43;;;17.60;62.70;;;;;;5070035;28;20216;-46
2023/04/17 07:05:16;;;;;;;11.30;8.57;;;17.60;62.60;;;;;;5070544;28;20209;-47
2023/04/17 07:07:45;;;;;;;11.43;9.20;;;17.70;62.60;;;;;;5050587;28;20209;-46
2023/04/17 07:10:14;;;;;;;14.60;9.63;;;17.70;62.50;;;;;;5071601;28;20714;-46
2023/04/17 07:12:44;;;;;;;13.03;10.17;;;17.70;62.60;;;;;;5070232;28;20267;-47
2023/04/17 07:15:15;;;;;;;13.47;9.57;;;17.60;62.30;;;;;;5069588;28;20781;-46
2023/04/17 07:17:49;;;;;;;10.73;8.97;;;17.70;62.40;;;;;;5034002;28;20190;-47
2023/04/17 07:20:21;;;;;;;12.90;8.93;;;17.60;62.50;;;;;;5075424;28;20303;-46
2023/04/17 07:22:54;;;;;;;11.20;8.93;;;17.70;62.20;;;;;;5066506;28;20205;-46
2023/04/17 07:25:26;;;;;;;11.10;8.97;;;17.70;62.20;;;;;;5064393;28;20244;-46
2023/04/17 07:27:56;;;;;;;12.27;9.33;;;17.70;62.20;;;;;;5046602;28;20226;-46
2023/04/17 07:30:28;;;;;;;10.63;9.07;;;17.60;62.30;;;;;;5046257;28;20206;-46
2023/04/17 07:32:57;;;;;;;11.13;9.07;;;17.70;62.30;;;;;;5047538;28;20213;-46
2023/04/17 07:35:27;;;;;;;20.50;9.87;;;17.70;62.10;;;;;;5052306;28;20520;-46
2023/04/17 07:38:00;;;;;;;24.07;9.60;;;17.70;62.50;;;;;;5047023;28;20214;-47
2023/04/17 07:40:30;;;;;;;21.90;10.87;;;17.70;62.60;;;;;;5054289;28;20663;-47
2023/04/17 07:43:02;;;;;;;20.67;10.70;;;17.70;62.50;;;;;;5030832;28;20620;-46
2023/04/17 07:45:35;;;;;;;16.63;9.80;;;17.70;62.40;;;;;;5051433;28;20213;-46
2023/04/17 07:48:10;;;;;;;21.00;10.40;;;17.70;62.30;;;;;;5044189;28;20222;-46
2023/04/17 07:50:43;;;;;;;16.30;10.47;;;17.70;62.10;;;;;;5049683;28;20234;-47
2023/04/17 07:53:12;;;;;;;16.67;10.03;;;17.70;62.10;;;;;;5028200;28;20194;-47
2023/04/17 07:55:43;;;;;;;18.00;9.57;;;17.70;62.30;;;;;;5063945;28;20194;-46
2023/04/17 07:58:12;;;;;;;13.97;9.97;;;17.70;62.40;;;;;;5051960;28;20656;-47
2023/04/17 08:00:42;;;;;;;18.00;10.07;;;17.70;62.10;;;;;;5057510;28;20263;-46
2023/04/17 08:03:13;;;;;;;12.90;9.97;;;17.70;62.20;;;;;;5048347;28;20232;-46
2023/04/17 08:05:46;;;;;;;16.77;10.10;;;17.70;62.20;;;;;;5051730;28;20200;-46
2023/04/17 08:08:22;;;;;;;13.53;9.10;;;17.70;62.50;;;;;;5032229;28;20201;-46
2023/04/17 08:10:51;;;;;;;12.30;9.33;;;17.70;62.00;;;;;;5046439;28;20232;-46
2023/04/17 08:13:20;;;;;;;12.53;9.53;;;17.70;61.90;;;;;;5057319;28;20232;-46
2023/04/17 08:15:51;;;;;;;13.77;9.70;;;17.70;62.10;;;;;;5054576;28;20202;-46
2023/04/17 08:18:21;;;;;;;10.77;9.00;;;17.70;61.70;;;;;;5046557;28;20202;-46
2023/04/17 08:20:52;;;;;;;12.63;10.27;;;17.70;61.90;;;;;;5047107;28;20194;-46
2023/04/17 08:23:24;;;;;;;12.97;9.63;;;17.70;61.90;;;;;;5047444;28;20645;-46
2023/04/17 08:25:57;;;;;;;10.10;8.80;;;17.70;61.70;;;;;;5054057;28;20643;-46
2023/04/17 08:28:29;;;;;;;14.50;10.60;;;17.70;62.00;;;;;;5068361;28;20194;-46
2023/04/17 08:31:01;;;;;;;14.17;9.87;;;17.70;62.00;;;;;;5062354;28;20225;-47
2023/04/17 08:33:32;;;;;;;11.83;9.23;;;17.70;61.90;;;;;;5072700;28;20182;-46
2023/04/17 08:36:10;;;;;;;13.63;10.20;;;17.70;61.90;;;;;;5068809;28;20201;-46
2023/04/17 08:38:42;;;;;;;13.63;10.13;;;17.70;61.80;;;;;;5066628;28;20225;-46
2023/04/17 08:41:19;;;;;;;11.40;9.07;;;17.70;61.80;;;;;;5068044;28;20213;-46
2023/04/17 08:43:50;;;;;;;12.83;10.20;;;17.70;61.70;;;;;;5072905;28;20627;-46
2023/04/17 08:46:24;;;;;;;13.27;9.13;;;17.70;61.90;;;;;;5051512;28;20200;-49
2023/04/17 08:48:56;;;;;;;13.47;9.60;;;17.80;61.90;;;;;;5046819;28;20227;-49
2023/04/17 08:51:26;;;;;;;14.90;10.20;;;17.80;62.10;;;;;;5078523;28;20218;-47
2023/04/17 08:53:58;;;;;;;12.77;10.13;;;17.90;62.30;;;;;;5066562;28;20220;-47
2023/04/17 08:56:29;;;;;;;13.07;9.90;;;17.90;62.30;;;;;;5084864;28;20631;-47
2023/04/17 08:59:00;;;;;;;14.77;10.90;;;17.90;63.00;;;;;;5072274;28;20196;-47
2023/04/17 09:01:33;;;;;;;14.97;9.80;;;17.90;62.80;;;;;;5070226;28;20686;-47
2023/04/17 09:04:05;;;;;;;12.17;9.40;;;18.00;62.90;;;;;;5083965;28;20207;-48
2023/04/17 09:06:53;;;;;;;14.07;10.50;;;18.00;62.70;;;;;;5077441;28;20197;-47
2023/04/17 09:09:22;;;;;;;13.80;9.97;;;18.10;62.60;;;;;;5083671;28;20567;-47
2023/04/17 09:12:11;;;;;;;13.43;10.43;;;18.20;63.40;;;;;;5076841;28;20212;-48
2023/04/17 09:14:43;;;;;;;11.63;9.57;;;18.30;62.70;;;;;;5053748;28;20201;-47
2023/04/17 09:17:16;;;;;;;12.33;9.50;;;18.40;62.20;;;;;;5056716;28;20198;-47
2023/04/17 09:20:06;;;;;;;10.60;9.50;;;18.60;62.10;;;;;;5042459;28;20592;-47
2023/04/17 09:22:40;;;;;;;11.90;9.63;;;18.70;61.90;;;;;;5069482;28;20519;-47
2023/04/17 09:25:22;;;;;;;13.60;9.50;;;18.70;61.70;;;;;;5066045;28;20211;-47
2023/04/17 09:27:49;;;;;;;10.47;9.33;;;18.80;61.40;;;;;;5046996;28;20951;-47
2023/04/17 09:30:17;;;;;;;10.87;9.57;;;19.00;61.40;;;;;;5057709;28;20267;-47
2023/04/17 09:33:01;;;;;;;11.20;9.20;;;19.10;60.90;;;;;;5068435;28;20540;-47
2023/04/17 09:35:31;;;;;;;18.13;9.67;;;19.10;60.90;;;;;;5074155;28;20650;-47
2023/04/17 09:38:08;;;;;;;11.87;8.93;;;19.20;60.60;;;;;;5042693;28;20205;-47
2023/04/17 09:40:40;;;;;;;10.53;9.43;;;19.30;60.30;;;;;;5068146;28;20217;-47
2023/04/17 09:43:42;;;;;;;12.77;10.07;;;19.40;59.80;;;;;;5051369;28;20205;-47
2023/04/17 09:46:13;;;;;;;11.80;10.00;;;19.50;59.70;;;;;;5071011;28;20592;-48
2023/04/17 09:49:07;;;;;;;10.37;9.20;;;19.60;59.30;;;;;;5054010;28;20210;-47
2023/04/17 09:51:39;;;;;;;10.97;9.60;;;19.60;59.30;;;;;;5067836;28;20230;-47
2023/04/17 09:54:10;;;;;;;12.53;9.37;;;19.70;58.90;;;;;;5046605;28;20420;-47
2023/04/17 09:56:38;;;;;;;10.87;8.80;;;19.70;59.10;;;;;;5052743;28;20251;-47
2023/04/17 09:59:09;;;;;;;11.03;9.60;;;19.70;59.00;;;;;;5051424;28;20194;-47
2023/04/17 10:01:42;;;;;;;10.40;9.30;;;19.80;58.80;;;;;;5068698;28;20202;-47
2023/04/17 10:04:13;;;;;;;9.87;8.87;;;19.90;58.70;;;;;;5070812;28;20205;-47
2023/04/17 10:06:42;;;;;;;10.67;9.53;;;19.90;58.50;;;;;;5060362;28;20305;-47
2023/04/17 10:09:12;;;;;;;11.13;9.80;;;20.00;58.60;;;;;;5068968;28;20194;-47
2023/04/17 10:12:00;;;;;;;11.70;9.30;;;20.00;58.60;;;;;;5080315;28;20213;-48
2023/04/17 10:14:42;;;;;;;10.43;9.33;;;20.10;58.80;;;;;;5063801;28;20217;-47
2023/04/17 10:17:31;;;;;;;42.13;18.10;;;20.00;61.80;;;;;;5050209;28;20221;-47
2023/04/17 10:20:19;;;;;;;61.50;23.57;;;19.90;62.60;;;;;;5044920;28;20268;-47
2023/04/17 10:22:54;;;;;;;49.60;20.10;;;19.80;63.10;;;;;;5069783;28;20186;-47
2023/04/17 10:25:26;;;;;;;40.20;17.60;;;19.70;62.90;;;;;;5068466;28;20209;-47
2023/04/17 10:28:03;;;;;;;43.63;17.93;;;19.60;62.90;;;;;;5066585;28;20698;-47
2023/04/17 10:31:00;;;;;;;32.57;15.23;;;19.60;63.80;;;;;;5086027;28;20570;-48
2023/04/17 10:33:28;;;;;;;33.77;15.40;;;19.50;64.10;;;;;;5046357;28;20571;-48
2023/04/17 10:36:00;;;;;;;30.77;14.73;;;19.50;64.00;;;;;;5047477;28;20205;-48
2023/04/17 10:38:35;;;;;;;27.80;14.73;;;19.40;64.00;;;;;;5075355;28;20210;-47
2023/04/17 10:41:10;;;;;;;26.57;13.53;;;19.40;64.10;;;;;;5076233;28;20194;-47
2023/04/17 10:43:58;;;;;;;28.40;15.10;;;19.30;64.40;;;;;;5075815;28;20285;-47
2023/04/17 10:46:28;;;;;;;23.20;13.33;;;19.30;64.50;;;;;;5080181;28;20186;-47
2023/04/17 10:49:03;;;;;;;24.43;13.80;;;19.30;65.00;;;;;;5043498;28;20209;-47
2023/04/17 10:51:41;;;;;;;21.70;12.50;;;19.20;65.10;;;;;;5074295;28;20542;-48
2023/04/17 10:54:14;;;;;;;24.40;13.47;;;19.20;64.90;;;;;;5068362;28;20197;-49
2023/04/17 10:56:46;;;;;;;20.03;12.23;;;19.20;65.40;;;;;;5073415;28;20189;-48
2023/04/17 10:59:20;;;;;;;26.77;13.97;;;19.10;65.60;;;;;;5069209;28;20210;-48
2023/04/17 11:01:51;;;;;;;19.97;12.00;;;19.10;65.20;;;;;;5083537;28;20205;-47
2023/04/17 11:04:26;;;;;;;24.80;13.37;;;19.10;65.60;;;;;;5075042;28;20198;-47
2023/04/17 11:06:57;;;;;;;18.53;12.17;;;19.10;65.90;;;;;;5049696;28;20196;-47
2023/04/17 11:09:27;;;;;;;18.27;11.77;;;19.00;65.60;;;;;;5053956;28;20194;-47
2023/04/17 11:12:00;;;;;;;22.90;12.20;;;19.00;65.90;;;;;;5062654;28;20206;-47
2023/04/17 11:14:32;;;;;;;19.50;11.97;;;19.00;65.50;;;;;;5063983;28;20208;-47
2023/04/17 11:17:02;;;;;;;17.90;12.73;;;19.00;66.00;;;;;;5066621;28;20718;-47
2023/04/17 11:19:34;;;;;;;17.77;11.70;;;19.00;65.60;;;;;;5070272;28;20202;-47
2023/04/17 11:22:05;;;;;;;19.13;12.30;;;19.00;66.00;;;;;;5070513;28;20260;-47
2023/04/17 11:24:37;;;;;;;18.57;12.07;;;19.00;65.60;;;;;;5069996;28;20194;-47
2023/04/17 11:27:09;;;;;;;16.10;10.67;;;18.90;66.10;;;;;;5063944;28;20253;-47
2023/04/17 11:29:39;;;;;;;18.33;12.67;;;19.00;66.00;;;;;;5089230;28;20195;-47
2023/04/17 11:32:11;;;;;;;15.67;11.03;;;19.00;66.50;;;;;;5090375;28;20196;-47
2023/04/17 11:34:56;;;;;;;14.20;11.47;;;19.00;66.00;;;;;;5102047;27;20657;-47
2023/04/17 11:37:30;;;;;;;18.27;11.20;;;18.90;66.40;;;;;;5071366;28;20212;-47
2023/04/17 11:40:08;;;;;;;19.63;11.57;;;18.90;65.50;;;;;;5089105;28;20204;-47
2023/04/17 11:42:45;;;;;;;14.30;11.30;;;18.90;65.80;;;;;;5087579;28;20288;-47
2023/04/17 11:45:17;;;;;;;15.93;10.97;;;18.90;65.70;;;;;;5090920;28;20606;-47
2023/04/17 11:47:50;;;;;;;15.57;11.23;;;18.90;65.70;;;;;;5072342;28;20189;-47
2023/04/17 11:50:30;;;;;;;12.83;10.77;;;18.90;65.30;;;;;;5070030;28;20196;-47
2023/04/17 11:53:02;;;;;;;14.97;10.13;;;19.00;65.50;;;;;;5079573;28;20250;-47
2023/04/17 11:55:33;;;;;;;14.20;10.47;;;18.90;65.60;;;;;;5103915;28;20197;-47
2023/04/17 11:58:16;;;;;;;13.77;11.10;;;18.90;66.30;;;;;;5074753;28;20193;-47
2023/04/17 12:01:05;;;;;;;11.43;10.23;;;18.90;66.30;;;;;;5090829;28;20199;-47
2023/04/17 12:03:35;;;;;;;10.97;9.50;;;18.90;65.80;;;;;;5089710;28;20189;-47
2023/04/17 12:06:10;;;;;;;12.40;10.07;;;18.90;66.00;;;;;;5073877;28;20590;-48
2023/04/17 12:08:52;;;;;;;12.87;10.37;;;18.90;66.10;;;;;;5088001;28;20197;-48
2023/04/17 12:11:35;;;;;;;12.23;9.97;;;18.90;66.10;;;;;;5078580;28;20622;-48
2023/04/17 12:14:04;;;;;;;10.67;9.57;;;18.90;66.40;;;;;;5086124;28;20241;-47
2023/04/17 12:16:35;;;;;;;12.17;9.50;;;18.90;67.20;;;;;;5090310;28;20607;-48
2023/04/17 12:19:15;;;;;;;10.87;9.60;;;18.90;67.10;;;;;;5089548;28;20205;-49
2023/04/17 12:21:46;;;;;;;11.17;10.07;;;18.90;66.90;;;;;;5106158;28;20200;-47
2023/04/17 12:24:29;;;;;;;15.57;10.60;;;18.90;66.80;;;;;;5075295;28;20506;-48
2023/04/17 12:27:00;;;;;;;11.03;9.47;;;18.80;67.00;;;;;;5085073;28;20623;-47
2023/04/17 12:29:31;;;;;;;11.77;10.17;;;18.90;66.90;;;;;;5082631;28;20189;-48
2023/04/17 12:32:14;;;;;;;11.63;9.80;;;18.90;67.40;;;;;;5072964;28;20221;-47
2023/04/17 12:34:42;;;;;;;11.17;9.53;;;18.80;67.30;;;;;;5072428;28;20220;-47
2023/04/17 12:37:12;;;;;;;11.20;9.33;;;18.90;66.60;;;;;;5083887;28;20201;-48
2023/04/17 12:39:43;;;;;;;10.90;9.03;;;18.90;67.10;;;;;;5077637;28;20715;-47
2023/04/17 12:42:13;;;;;;;10.40;8.60;;;18.90;67.10;;;;;;5074781;28;20212;-47
2023/04/17 12:44:45;;;;;;;10.73;9.63;;;18.80;67.00;;;;;;5073447;28;20243;-48
2023/04/17 12:47:18;;;;;;;10.43;9.40;;;18.90;66.60;;;;;;5071779;28;20650;-47
2023/04/17 12:49:47;;;;;;;9.97;8.97;;;18.90;66.40;;;;;;5080231;28;20209;-48
2023/04/17 12:52:18;;;;;;;11.83;9.10;;;18.90;65.50;;;;;;5072176;28;20233;-48
2023/04/17 12:54:57;;;;;;;11.40;9.43;;;18.90;65.80;;;;;;5074680;28;20197;-47
2023/04/17 12:57:27;;;;;;;9.20;8.20;;;18.90;65.70;;;;;;5072613;28;20231;-48
2023/04/17 12:59:57;;;;;;;10.90;8.87;;;18.80;65.20;;;;;;5063052;28;20189;-47
2023/04/17 13:02:27;;;;;;;9.40;8.50;;;18.80;64.90;;;;;;5076738;28;20205;-47
2023/04/17 13:04:59;;;;;;;10.40;8.77;;;18.90;65.20;;;;;;5053069;28;20205;-47